sensor_id;sensor_type;location;lat;lon;timestamp;temperature;humidity
29775;DHT22;16676;51.202;6.774;2024-03-07T00:00:12;19.70;68.70
29775;DHT22;16676;51.202;6.774;2024-03-07T00:04:18;19.70;68.70
29775;DHT22;16676;51.202;6.774;2024-03-07T00:08:20;19.70;68.70
29775;DHT22;16676;51.202;6.774;2024-03-07T00:12:21;19.60;68.70
29775;DHT22;16676;51.202;6.774;2024-03-07T00:16:25;19.70;68.70
29775;DHT22;16676;51.202;6.774;2024-03-07T00:20:27;19.60;68.60
29775;DHT22;16676;51.202;6.774;2024-03-07T00:24:29;19.60;68.60
29775;DHT22;16676;51.202;6.774;2024-03-07T00:28:31;19.60;68.60
29775;DHT22;16676;51.202;6.774;2024-03-07T00:32:41;19.60;68.70
29775;DHT22;16676;51.202;6.774;2024-03-07T00:36:43;19.60;68.80
29775;DHT22;16676;51.202;6.774;2024-03-07T00:40:45;19.50;68.90
29775;DHT22;16676;51.202;6.774;2024-03-07T00:44:47;19.50;68.90
29775;DHT22;16676;51.202;6.774;2024-03-07T00:48:51;19.50;69.00
29775;DHT22;16676;51.202;6.774;2024-03-07T00:52:53;19.50;69.10
29775;DHT22;16676;51.202;6.774;2024-03-07T00:56:55;19.50;69.20
29775;DHT22;16676;51.202;6.774;2024-03-07T01:00:57;19.50;69.10
29775;DHT22;16676;51.202;6.774;2024-03-07T01:05:00;19.40;69.10
29775;DHT22;16676;51.202;6.774;2024-03-07T01:09:08;19.40;69.40
29775;DHT22;16676;51.202;6.774;2024-03-07T01:13:14;19.40;69.30
29775;DHT22;16676;51.202;6.774;2024-03-07T01:17:19;19.40;69.30
29775;DHT22;16676;51.202;6.774;2024-03-07T01:21:23;19.40;69.40
29775;DHT22;16676;51.202;6.774;2024-03-07T01:25:25;19.40;69.40
29775;DHT22;16676;51.202;6.774;2024-03-07T01:29:27;19.30;69.30
29775;DHT22;16676;51.202;6.774;2024-03-07T01:33:29;19.30;69.40
29775;DHT22;16676;51.202;6.774;2024-03-07T01:37:33;19.30;69.40
29775;DHT22;16676;51.202;6.774;2024-03-07T01:41:35;19.30;69.40
29775;DHT22;16676;51.202;6.774;2024-03-07T01:45:37;19.30;69.50
29775;DHT22;16676;51.202;6.774;2024-03-07T01:49:39;19.20;69.30
29775;DHT22;16676;51.202;6.774;2024-03-07T01:53:42;19.20;69.50
29775;DHT22;16676;51.202;6.774;2024-03-07T01:57:46;19.20;69.60
29775;DHT22;16676;51.202;6.774;2024-03-07T02:01:48;19.20;69.50
29775;DHT22;16676;51.202;6.774;2024-03-07T02:05:51;19.20;69.60
29775;DHT22;16676;51.202;6.774;2024-03-07T02:10:00;19.10;69.60
29775;DHT22;16676;51.202;6.774;2024-03-07T02:14:02;19.10;69.80
29775;DHT22;16676;51.202;6.774;2024-03-07T02:18:04;19.00;69.70
29775;DHT22;16676;51.202;6.774;2024-03-07T02:22:07;19.00;69.70
29775;DHT22;16676;51.202;6.774;2024-03-07T02:26:09;19.00;69.90
29775;DHT22;16676;51.202;6.774;2024-03-07T02:30:12;19.00;70.00
29775;DHT22;16676;51.202;6.774;2024-03-07T02:34:15;19.00;70.10
29775;DHT22;16676;51.202;6.774;2024-03-07T02:38:18;19.00;70.10
29775;DHT22;16676;51.202;6.774;2024-03-07T02:42:20;18.90;70.20
29775;DHT22;16676;51.202;6.774;2024-03-07T02:46:22;19.00;70.10
29775;DHT22;16676;51.202;6.774;2024-03-07T02:50:24;18.90;70.30
29775;DHT22;16676;51.202;6.774;2024-03-07T02:54:28;18.90;70.40
29775;DHT22;16676;51.202;6.774;2024-03-07T02:58:30;18.90;70.30
29775;DHT22;16676;51.202;6.774;2024-03-07T03:02:31;18.90;70.60
29775;DHT22;16676;51.202;6.774;2024-03-07T03:06:33;18.80;70.70
29775;DHT22;16676;51.202;6.774;2024-03-07T03:10:37;18.90;70.80
29775;DHT22;16676;51.202;6.774;2024-03-07T03:14:38;18.80;70.70
29775;DHT22;16676;51.202;6.774;2024-03-07T03:18:41;18.80;70.70
29775;DHT22;16676;51.202;6.774;2024-03-07T03:22:43;18.80;70.70
29775;DHT22;16676;51.202;6.774;2024-03-07T03:26:46;18.80;71.10
29775;DHT22;16676;51.202;6.774;2024-03-07T03:30:49;18.80;71.10
29775;DHT22;16676;51.202;6.774;2024-03-07T03:34:51;18.80;70.90
29775;DHT22;16676;51.202;6.774;2024-03-07T03:38:54;18.80;71.20
29775;DHT22;16676;51.202;6.774;2024-03-07T03:42:57;18.80;72.10
29775;DHT22;16676;51.202;6.774;2024-03-07T03:46:59;18.80;71.30
29775;DHT22;16676;51.202;6.774;2024-03-07T03:51:06;18.80;71.50
29775;DHT22;16676;51.202;6.774;2024-03-07T03:55:08;18.80;71.50
29775;DHT22;16676;51.202;6.774;2024-03-07T03:59:13;18.70;71.50
29775;DHT22;16676;51.202;6.774;2024-03-07T04:03:15;18.70;71.50
29775;DHT22;16676;51.202;6.774;2024-03-07T04:07:17;18.70;71.50
29775;DHT22;16676;51.202;6.774;2024-03-07T04:11:19;18.70;71.60
29775;DHT22;16676;51.202;6.774;2024-03-07T04:15:22;18.70;71.70
29775;DHT22;16676;51.202;6.774;2024-03-07T04:19:27;18.60;71.70
29775;DHT22;16676;51.202;6.774;2024-03-07T04:23:33;18.70;71.80
29775;DHT22;16676;51.202;6.774;2024-03-07T04:27:36;18.60;71.70
29775;DHT22;16676;51.202;6.774;2024-03-07T04:31:41;18.60;71.70
29775;DHT22;16676;51.202;6.774;2024-03-07T04:35:44;18.60;71.80
29775;DHT22;16676;51.202;6.774;2024-03-07T04:39:46;18.60;72.70
29775;DHT22;16676;51.202;6.774;2024-03-07T04:43:48;18.60;71.90
29775;DHT22;16676;51.202;6.774;2024-03-07T04:47:51;18.60;71.90
29775;DHT22;16676;51.202;6.774;2024-03-07T04:51:55;18.60;71.90
29775;DHT22;16676;51.202;6.774;2024-03-07T04:55:58;18.60;71.90
29775;DHT22;16676;51.202;6.774;2024-03-07T05:00:00;18.50;72.10
29775;DHT22;16676;51.202;6.774;2024-03-07T05:04:03;18.60;72.00
29775;DHT22;16676;51.202;6.774;2024-03-07T05:08:05;18.50;72.00
29775;DHT22;16676;51.202;6.774;2024-03-07T05:12:07;18.50;72.10
29775;DHT22;16676;51.202;6.774;2024-03-07T05:16:09;18.50;72.10
29775;DHT22;16676;51.202;6.774;2024-03-07T05:20:13;18.50;72.10
29775;DHT22;16676;51.202;6.774;2024-03-07T05:24:15;18.50;72.20
29775;DHT22;16676;51.202;6.774;2024-03-07T05:28:17;18.50;72.20
29775;DHT22;16676;51.202;6.774;2024-03-07T05:32:20;18.50;72.40
29775;DHT22;16676;51.202;6.774;2024-03-07T05:36:24;18.50;72.40
29775;DHT22;16676;51.202;6.774;2024-03-07T05:40:27;18.50;72.40
29775;DHT22;16676;51.202;6.774;2024-03-07T05:44:29;18.50;72.40
29775;DHT22;16676;51.202;6.774;2024-03-07T05:48:31;18.50;72.40
29775;DHT22;16676;51.202;6.774;2024-03-07T05:52:34;18.50;72.50
29775;DHT22;16676;51.202;6.774;2024-03-07T05:56:37;18.40;72.50
29775;DHT22;16676;51.202;6.774;2024-03-07T06:00:39;18.40;72.60
29775;DHT22;16676;51.202;6.774;2024-03-07T06:04:41;18.40;72.80
29775;DHT22;16676;51.202;6.774;2024-03-07T06:08:45;18.40;72.60
29775;DHT22;16676;51.202;6.774;2024-03-07T06:12:47;18.40;72.70
29775;DHT22;16676;51.202;6.774;2024-03-07T06:16:48;18.40;72.60
29775;DHT22;16676;51.202;6.774;2024-03-07T06:20:52;18.40;72.60
29775;DHT22;16676;51.202;6.774;2024-03-07T06:24:55;18.30;68.50
29775;DHT22;16676;51.202;6.774;2024-03-07T06:29:04;18.20;64.30
29775;DHT22;16676;51.202;6.774;2024-03-07T06:33:07;17.90;64.60
29775;DHT22;16676;51.202;6.774;2024-03-07T06:37:09;17.70;60.40
29775;DHT22;16676;51.202;6.774;2024-03-07T06:41:12;17.20;57.30
29775;DHT22;16676;51.202;6.774;2024-03-07T06:45:14;16.70;55.40
29775;DHT22;16676;51.202;6.774;2024-03-07T06:49:16;16.50;56.40
29775;DHT22;16676;51.202;6.774;2024-03-07T06:53:18;16.40;56.10
29775;DHT22;16676;51.202;6.774;2024-03-07T06:57:22;16.30;56.60
29775;DHT22;16676;51.202;6.774;2024-03-07T07:01:24;16.50;58.60
29775;DHT22;16676;51.202;6.774;2024-03-07T07:05:26;17.00;58.70
29775;DHT22;16676;51.202;6.774;2024-03-07T07:09:28;17.50;58.30
29775;DHT22;16676;51.202;6.774;2024-03-07T07:13:31;18.10;58.00
29775;DHT22;16676;51.202;6.774;2024-03-07T07:17:33;18.70;57.50
29775;DHT22;16676;51.202;6.774;2024-03-07T07:21:35;19.30;57.00
29775;DHT22;16676;51.202;6.774;2024-03-07T07:25:37;19.80;56.30
29775;DHT22;16676;51.202;6.774;2024-03-07T07:29:40;20.20;55.30
29775;DHT22;16676;51.202;6.774;2024-03-07T07:33:42;20.60;54.70
29775;DHT22;16676;51.202;6.774;2024-03-07T07:37:45;21.00;54.40
29775;DHT22;16676;51.202;6.774;2024-03-07T07:41:48;21.30;54.20
29775;DHT22;16676;51.202;6.774;2024-03-07T07:45:52;21.40;54.30
29775;DHT22;16676;51.202;6.774;2024-03-07T07:49:54;21.40;55.00
29775;DHT22;16676;51.202;6.774;2024-03-07T07:53:56;21.50;55.60
29775;DHT22;16676;51.202;6.774;2024-03-07T07:57:59;21.50;55.60
29775;DHT22;16676;51.202;6.774;2024-03-07T08:02:02;21.70;55.80
29775;DHT22;16676;51.202;6.774;2024-03-07T08:06:07;21.80;56.00
29775;DHT22;16676;51.202;6.774;2024-03-07T08:10:09;22.00;56.10
29775;DHT22;16676;51.202;6.774;2024-03-07T08:14:11;22.10;56.50
29775;DHT22;16676;51.202;6.774;2024-03-07T08:18:14;22.10;56.30
29775;DHT22;16676;51.202;6.774;2024-03-07T08:22:17;22.20;56.60
29775;DHT22;16676;51.202;6.774;2024-03-07T08:26:20;22.30;56.70
29775;DHT22;16676;51.202;6.774;2024-03-07T08:30:22;22.30;56.80
29775;DHT22;16676;51.202;6.774;2024-03-07T08:34:26;22.30;57.00
29775;DHT22;16676;51.202;6.774;2024-03-07T08:38:28;22.40;57.30
29775;DHT22;16676;51.202;6.774;2024-03-07T08:42:30;22.40;57.60
29775;DHT22;16676;51.202;6.774;2024-03-07T08:46:33;22.40;57.80
29775;DHT22;16676;51.202;6.774;2024-03-07T08:50:36;22.40;58.00
29775;DHT22;16676;51.202;6.774;2024-03-07T08:54:38;22.40;58.20
29775;DHT22;16676;51.202;6.774;2024-03-07T08:58:40;22.40;58.30
29775;DHT22;16676;51.202;6.774;2024-03-07T09:02:44;22.50;58.40
29775;DHT22;16676;51.202;6.774;2024-03-07T09:06:47;22.50;58.70
29775;DHT22;16676;51.202;6.774;2024-03-07T09:10:50;22.50;58.50
29775;DHT22;16676;51.202;6.774;2024-03-07T09:14:55;22.50;58.50
29775;DHT22;16676;51.202;6.774;2024-03-07T09:18:57;22.40;58.90
29775;DHT22;16676;51.202;6.774;2024-03-07T09:23:01;22.30;59.30
29775;DHT22;16676;51.202;6.774;2024-03-07T09:27:03;22.30;59.60
29775;DHT22;16676;51.202;6.774;2024-03-07T09:31:05;22.30;59.90
29775;DHT22;16676;51.202;6.774;2024-03-07T09:35:09;22.30;60.30
29775;DHT22;16676;51.202;6.774;2024-03-07T09:39:14;22.30;60.70
29775;DHT22;16676;51.202;6.774;2024-03-07T09:43:16;22.20;61.00
29775;DHT22;16676;51.202;6.774;2024-03-07T09:47:20;22.20;61.40
29775;DHT22;16676;51.202;6.774;2024-03-07T09:51:22;22.10;61.50
29775;DHT22;16676;51.202;6.774;2024-03-07T09:55:26;22.10;61.80
29775;DHT22;16676;51.202;6.774;2024-03-07T09:59:28;22.00;61.90
29775;DHT22;16676;51.202;6.774;2024-03-07T10:03:33;22.00;63.10
29775;DHT22;16676;51.202;6.774;2024-03-07T10:07:37;21.90;62.40
29775;DHT22;16676;51.202;6.774;2024-03-07T10:11:40;21.90;62.50
29775;DHT22;16676;51.202;6.774;2024-03-07T10:15:43;21.90;62.80
29775;DHT22;16676;51.202;6.774;2024-03-07T10:19:46;21.80;63.10
29775;DHT22;16676;51.202;6.774;2024-03-07T10:23:49;21.80;63.40
29775;DHT22;16676;51.202;6.774;2024-03-07T10:27:54;21.70;63.70
29775;DHT22;16676;51.202;6.774;2024-03-07T10:31:58;21.70;63.70
29775;DHT22;16676;51.202;6.774;2024-03-07T10:36:00;21.70;64.30
29775;DHT22;16676;51.202;6.774;2024-03-07T10:40:03;21.60;64.60
29775;DHT22;16676;51.202;6.774;2024-03-07T10:44:20;21.60;65.00
29775;DHT22;16676;51.202;6.774;2024-03-07T10:48:29;21.60;65.20
29775;DHT22;16676;51.202;6.774;2024-03-07T10:52:38;21.60;65.40
29775;DHT22;16676;51.202;6.774;2024-03-07T10:56:56;21.60;65.60
29775;DHT22;16676;51.202;6.774;2024-03-07T11:01:07;21.70;65.90
29775;DHT22;16676;51.202;6.774;2024-03-07T11:05:13;21.70;66.00
29775;DHT22;16676;51.202;6.774;2024-03-07T11:09:17;21.70;66.00
29775;DHT22;16676;51.202;6.774;2024-03-07T11:13:24;21.70;66.20
29775;DHT22;16676;51.202;6.774;2024-03-07T11:17:29;21.60;66.50
29775;DHT22;16676;51.202;6.774;2024-03-07T11:21:43;21.60;66.60
29775;DHT22;16676;51.202;6.774;2024-03-07T11:25:45;21.60;66.80
29775;DHT22;16676;51.202;6.774;2024-03-07T11:29:48;21.50;67.10
29775;DHT22;16676;51.202;6.774;2024-03-07T11:34:13;21.60;67.10
29775;DHT22;16676;51.202;6.774;2024-03-07T11:38:19;21.60;67.20
29775;DHT22;16676;51.202;6.774;2024-03-07T11:42:25;21.60;67.30
29775;DHT22;16676;51.202;6.774;2024-03-07T11:46:29;21.60;67.40
29775;DHT22;16676;51.202;6.774;2024-03-07T11:50:36;21.60;67.30
29775;DHT22;16676;51.202;6.774;2024-03-07T11:54:38;21.70;67.40
29775;DHT22;16676;51.202;6.774;2024-03-07T11:58:43;21.70;66.90
29775;DHT22;16676;51.202;6.774;2024-03-07T12:02:45;21.80;67.10
29775;DHT22;16676;51.202;6.774;2024-03-07T12:06:53;21.80;56.30
29775;DHT22;16676;51.202;6.774;2024-03-07T12:10:55;21.60;53.80
29775;DHT22;16676;51.202;6.774;2024-03-07T12:14:57;21.40;52.60
29775;DHT22;16676;51.202;6.774;2024-03-07T12:18:59;21.20;53.20
29775;DHT22;16676;51.202;6.774;2024-03-07T12:23:07;21.00;52.80
29775;DHT22;16676;51.202;6.774;2024-03-07T12:27:11;20.80;52.70
29775;DHT22;16676;51.202;6.774;2024-03-07T12:31:13;20.70;52.00
29775;DHT22;16676;51.202;6.774;2024-03-07T12:35:17;20.60;54.80
29775;DHT22;16676;51.202;6.774;2024-03-07T12:39:24;20.60;58.10
29775;DHT22;16676;51.202;6.774;2024-03-07T12:43:27;20.70;60.20
29775;DHT22;16676;51.202;6.774;2024-03-07T12:47:30;20.70;62.70
29775;DHT22;16676;51.202;6.774;2024-03-07T12:51:32;20.80;64.30
29775;DHT22;16676;51.202;6.774;2024-03-07T12:55:39;20.90;65.80
29775;DHT22;16676;51.202;6.774;2024-03-07T12:59:42;20.90;66.80
29775;DHT22;16676;51.202;6.774;2024-03-07T13:03:44;21.00;67.80
29775;DHT22;16676;51.202;6.774;2024-03-07T13:07:48;21.00;68.90
29775;DHT22;16676;51.202;6.774;2024-03-07T13:11:52;21.10;69.30
29775;DHT22;16676;51.202;6.774;2024-03-07T13:15:54;21.10;70.60
29775;DHT22;16676;51.202;6.774;2024-03-07T13:19:56;21.10;71.50
29775;DHT22;16676;51.202;6.774;2024-03-07T13:24:00;21.10;71.50
29775;DHT22;16676;51.202;6.774;2024-03-07T13:28:06;21.20;71.50
29775;DHT22;16676;51.202;6.774;2024-03-07T13:32:09;21.20;73.20
29775;DHT22;16676;51.202;6.774;2024-03-07T13:36:13;21.20;72.80
29775;DHT22;16676;51.202;6.774;2024-03-07T13:40:21;21.30;73.60
29775;DHT22;16676;51.202;6.774;2024-03-07T13:44:28;21.30;73.40
29775;DHT22;16676;51.202;6.774;2024-03-07T13:48:30;21.30;73.80
29775;DHT22;16676;51.202;6.774;2024-03-07T13:52:33;21.30;74.60
29775;DHT22;16676;51.202;6.774;2024-03-07T13:56:50;21.40;74.90
29775;DHT22;16676;51.202;6.774;2024-03-07T14:01:02;21.40;75.40
29775;DHT22;16676;51.202;6.774;2024-03-07T14:29:23;21.40;77.10
29775;DHT22;16676;51.202;6.774;2024-03-07T14:33:32;21.40;78.00
29775;DHT22;16676;51.202;6.774;2024-03-07T14:37:46;21.50;77.80
29775;DHT22;16676;51.202;6.774;2024-03-07T14:41:53;21.40;78.20
29775;DHT22;16676;51.202;6.774;2024-03-07T14:45:56;21.50;78.30
29775;DHT22;16676;51.202;6.774;2024-03-07T14:49:58;21.50;78.40
29775;DHT22;16676;51.202;6.774;2024-03-07T14:54:02;21.50;78.60
29775;DHT22;16676;51.202;6.774;2024-03-07T14:58:04;21.50;78.70
29775;DHT22;16676;51.202;6.774;2024-03-07T15:02:11;21.50;78.20
29775;DHT22;16676;51.202;6.774;2024-03-07T15:06:14;21.50;79.20
29775;DHT22;16676;51.202;6.774;2024-03-07T15:10:19;21.50;79.10
29775;DHT22;16676;51.202;6.774;2024-03-07T15:14:22;21.50;79.90
29775;DHT22;16676;51.202;6.774;2024-03-07T15:18:24;21.60;79.30
29775;DHT22;16676;51.202;6.774;2024-03-07T15:22:27;21.60;79.40
29775;DHT22;16676;51.202;6.774;2024-03-07T15:26:31;21.60;79.90
29775;DHT22;16676;51.202;6.774;2024-03-07T15:30:33;21.60;78.90
29775;DHT22;16676;51.202;6.774;2024-03-07T15:34:36;21.60;80.00
29775;DHT22;16676;51.202;6.774;2024-03-07T15:38:38;21.60;80.40
29775;DHT22;16676;51.202;6.774;2024-03-07T15:42:42;21.60;80.60
29775;DHT22;16676;51.202;6.774;2024-03-07T15:46:44;21.60;80.20
29775;DHT22;16676;51.202;6.774;2024-03-07T15:50:50;21.60;80.40
29775;DHT22;16676;51.202;6.774;2024-03-07T15:54:53;21.50;81.00
29775;DHT22;16676;51.202;6.774;2024-03-07T15:58:56;21.60;80.60
29775;DHT22;16676;51.202;6.774;2024-03-07T16:02:59;21.60;80.30
29775;DHT22;16676;51.202;6.774;2024-03-07T16:07:01;21.60;81.30
29775;DHT22;16676;51.202;6.774;2024-03-07T16:11:04;21.50;81.40
29775;DHT22;16676;51.202;6.774;2024-03-07T16:15:09;21.60;81.60
29775;DHT22;16676;51.202;6.774;2024-03-07T16:19:11;21.60;82.60
29775;DHT22;16676;51.202;6.774;2024-03-07T16:23:13;21.60;82.20
29775;DHT22;16676;51.202;6.774;2024-03-07T16:27:16;21.60;81.20
29775;DHT22;16676;51.202;6.774;2024-03-07T16:31:19;21.60;81.80
29775;DHT22;16676;51.202;6.774;2024-03-07T16:35:21;21.60;81.70
29775;DHT22;16676;51.202;6.774;2024-03-07T16:39:23;21.60;82.00
29775;DHT22;16676;51.202;6.774;2024-03-07T16:43:25;21.60;82.60
29775;DHT22;16676;51.202;6.774;2024-03-07T16:47:28;21.60;81.80
29775;DHT22;16676;51.202;6.774;2024-03-07T16:51:30;21.60;82.70
29775;DHT22;16676;51.202;6.774;2024-03-07T16:55:33;21.60;82.20
29775;DHT22;16676;51.202;6.774;2024-03-07T16:59:38;21.30;62.00
29775;DHT22;16676;51.202;6.774;2024-03-07T17:03:41;20.40;55.50
29775;DHT22;16676;51.202;6.774;2024-03-07T17:07:43;20.00;55.20
29775;DHT22;16676;51.202;6.774;2024-03-07T17:11:45;19.60;54.10
29775;DHT22;16676;51.202;6.774;2024-03-07T17:15:47;19.20;51.00
29775;DHT22;16676;51.202;6.774;2024-03-07T17:19:50;19.00;52.60
29775;DHT22;16676;51.202;6.774;2024-03-07T17:23:52;19.00;53.70
29775;DHT22;16676;51.202;6.774;2024-03-07T17:27:54;18.80;51.70
29775;DHT22;16676;51.202;6.774;2024-03-07T17:31:58;18.70;52.20
29775;DHT22;16676;51.202;6.774;2024-03-07T17:36:01;18.80;54.40
29775;DHT22;16676;51.202;6.774;2024-03-07T17:40:08;18.90;56.70
29775;DHT22;16676;51.202;6.774;2024-03-07T17:44:15;19.00;58.10
29775;DHT22;16676;51.202;6.774;2024-03-07T17:48:17;19.10;59.00
29775;DHT22;16676;51.202;6.774;2024-03-07T17:52:21;19.20;59.60
29775;DHT22;16676;51.202;6.774;2024-03-07T17:56:27;19.20;60.30
29775;DHT22;16676;51.202;6.774;2024-03-07T18:00:29;19.20;60.80
29775;DHT22;16676;51.202;6.774;2024-03-07T18:04:32;19.20;61.40
29775;DHT22;16676;51.202;6.774;2024-03-07T18:08:35;19.20;62.50
29775;DHT22;16676;51.202;6.774;2024-03-07T18:12:38;19.20;62.30
29775;DHT22;16676;51.202;6.774;2024-03-07T18:16:40;19.20;62.60
29775;DHT22;16676;51.202;6.774;2024-03-07T18:20:42;19.20;63.00
29775;DHT22;16676;51.202;6.774;2024-03-07T18:24:45;19.20;63.30
29775;DHT22;16676;51.202;6.774;2024-03-07T18:28:47;19.20;63.60
29775;DHT22;16676;51.202;6.774;2024-03-07T18:32:49;19.20;64.00
29775;DHT22;16676;51.202;6.774;2024-03-07T18:36:51;19.20;64.20
29775;DHT22;16676;51.202;6.774;2024-03-07T18:40:54;19.20;64.60
29775;DHT22;16676;51.202;6.774;2024-03-07T18:44:56;19.20;64.90
29775;DHT22;16676;51.202;6.774;2024-03-07T18:48:59;19.20;65.20
29775;DHT22;16676;51.202;6.774;2024-03-07T18:53:09;19.20;65.30
29775;DHT22;16676;51.202;6.774;2024-03-07T18:57:12;19.20;65.70
29775;DHT22;16676;51.202;6.774;2024-03-07T19:01:14;19.20;66.10
29775;DHT22;16676;51.202;6.774;2024-03-07T19:05:16;19.20;66.00
29775;DHT22;16676;51.202;6.774;2024-03-07T19:09:18;19.10;66.30
29775;DHT22;16676;51.202;6.774;2024-03-07T19:13:26;19.10;66.30
29775;DHT22;16676;51.202;6.774;2024-03-07T19:17:33;19.10;66.40
29775;DHT22;16676;51.202;6.774;2024-03-07T19:21:41;19.10;66.80
29775;DHT22;16676;51.202;6.774;2024-03-07T19:25:44;19.10;66.90
29775;DHT22;16676;51.202;6.774;2024-03-07T19:29:50;19.10;67.00
29775;DHT22;16676;51.202;6.774;2024-03-07T19:33:54;19.10;67.00
29775;DHT22;16676;51.202;6.774;2024-03-07T19:37:56;19.10;67.30
29775;DHT22;16676;51.202;6.774;2024-03-07T19:41:58;19.00;67.40
29775;DHT22;16676;51.202;6.774;2024-03-07T19:46:01;19.00;67.50
29775;DHT22;16676;51.202;6.774;2024-03-07T19:50:05;19.00;67.60
29775;DHT22;16676;51.202;6.774;2024-03-07T19:54:08;19.00;67.80
29775;DHT22;16676;51.202;6.774;2024-03-07T19:58:10;19.00;67.80
29775;DHT22;16676;51.202;6.774;2024-03-07T20:02:14;18.90;68.00
29775;DHT22;16676;51.202;6.774;2024-03-07T20:06:16;19.00;68.10
29775;DHT22;16676;51.202;6.774;2024-03-07T20:10:19;19.00;68.20
29775;DHT22;16676;51.202;6.774;2024-03-07T20:14:21;19.00;67.90
29775;DHT22;16676;51.202;6.774;2024-03-07T20:18:25;19.00;68.00
29775;DHT22;16676;51.202;6.774;2024-03-07T20:22:27;19.00;68.10
29775;DHT22;16676;51.202;6.774;2024-03-07T20:26:29;19.00;68.10
29775;DHT22;16676;51.202;6.774;2024-03-07T20:30:33;18.90;68.10
29775;DHT22;16676;51.202;6.774;2024-03-07T20:34:38;18.90;68.40
29775;DHT22;16676;51.202;6.774;2024-03-07T20:38:42;18.90;68.30
29775;DHT22;16676;51.202;6.774;2024-03-07T20:42:44;18.90;68.30
29775;DHT22;16676;51.202;6.774;2024-03-07T20:46:46;18.90;69.00
29775;DHT22;16676;51.202;6.774;2024-03-07T20:50:50;18.90;68.50
29775;DHT22;16676;51.202;6.774;2024-03-07T20:54:52;18.90;68.80
29775;DHT22;16676;51.202;6.774;2024-03-07T20:58:59;18.80;68.50
29775;DHT22;16676;51.202;6.774;2024-03-07T21:03:02;18.90;69.10
29775;DHT22;16676;51.202;6.774;2024-03-07T21:07:06;18.80;68.40
29775;DHT22;16676;51.202;6.774;2024-03-07T21:11:09;18.80;68.70
29775;DHT22;16676;51.202;6.774;2024-03-07T21:15:12;18.80;68.90
29775;DHT22;16676;51.202;6.774;2024-03-07T21:19:15;18.80;68.90
29775;DHT22;16676;51.202;6.774;2024-03-07T21:23:18;18.80;69.10
29775;DHT22;16676;51.202;6.774;2024-03-07T21:27:24;18.80;69.10
29775;DHT22;16676;51.202;6.774;2024-03-07T21:31:26;18.80;69.20
29775;DHT22;16676;51.202;6.774;2024-03-07T21:35:28;18.80;69.30
29775;DHT22;16676;51.202;6.774;2024-03-07T21:39:32;18.80;69.10
29775;DHT22;16676;51.202;6.774;2024-03-07T21:43:34;18.80;69.60
29775;DHT22;16676;51.202;6.774;2024-03-07T21:47:37;18.80;69.60
29775;DHT22;16676;51.202;6.774;2024-03-07T21:51:45;18.80;69.50
29775;DHT22;16676;51.202;6.774;2024-03-07T21:55:50;18.80;69.80
29775;DHT22;16676;51.202;6.774;2024-03-07T21:59:56;18.80;70.00
29775;DHT22;16676;51.202;6.774;2024-03-07T22:03:58;18.80;70.00
29775;DHT22;16676;51.202;6.774;2024-03-07T22:08:00;18.80;70.00
29775;DHT22;16676;51.202;6.774;2024-03-07T22:12:06;18.80;70.10
29775;DHT22;16676;51.202;6.774;2024-03-07T22:16:09;18.70;70.20
29775;DHT22;16676;51.202;6.774;2024-03-07T22:20:11;18.70;70.20
29775;DHT22;16676;51.202;6.774;2024-03-07T22:24:14;18.70;70.10
29775;DHT22;16676;51.202;6.774;2024-03-07T22:28:18;18.70;70.00
29775;DHT22;16676;51.202;6.774;2024-03-07T22:32:19;18.70;70.10
29775;DHT22;16676;51.202;6.774;2024-03-07T22:36:21;18.70;70.30
29775;DHT22;16676;51.202;6.774;2024-03-07T22:40:25;18.70;70.20
29775;DHT22;16676;51.202;6.774;2024-03-07T22:44:29;18.70;70.40
29775;DHT22;16676;51.202;6.774;2024-03-07T22:48:31;18.70;70.20
29775;DHT22;16676;51.202;6.774;2024-03-07T22:52:33;18.70;70.40
29775;DHT22;16676;51.202;6.774;2024-03-07T22:56:36;18.60;70.50
29775;DHT22;16676;51.202;6.774;2024-03-07T23:00:41;18.60;70.30
29775;DHT22;16676;51.202;6.774;2024-03-07T23:04:45;18.60;70.60
29775;DHT22;16676;51.202;6.774;2024-03-07T23:08:48;18.60;70.50
29775;DHT22;16676;51.202;6.774;2024-03-07T23:12:50;18.60;70.60
29775;DHT22;16676;51.202;6.774;2024-03-07T23:16:54;18.60;70.90
29775;DHT22;16676;51.202;6.774;2024-03-07T23:20:56;18.60;70.70
29775;DHT22;16676;51.202;6.774;2024-03-07T23:24:58;18.60;71.00
29775;DHT22;16676;51.202;6.774;2024-03-07T23:29:00;18.50;70.70
29775;DHT22;16676;51.202;6.774;2024-03-07T23:33:04;18.60;71.10
29775;DHT22;16676;51.202;6.774;2024-03-07T23:37:06;18.50;71.20
29775;DHT22;16676;51.202;6.774;2024-03-07T23:41:08;18.50;71.10
29775;DHT22;16676;51.202;6.774;2024-03-07T23:45:11;18.50;71.20
29775;DHT22;16676;51.202;6.774;2024-03-07T23:49:15;18.50;71.20
29775;DHT22;16676;51.202;6.774;2024-03-07T23:53:17;18.50;71.20
29775;DHT22;16676;51.202;6.774;2024-03-07T23:57:20;18.50;71.20
